createdAt,value
2023-08-07T00:00:02.440Z,11.62
2023-08-07T00:02:31.013Z,11.69
2023-08-07T00:05:00.493Z,11.52
2023-08-07T00:07:28.613Z,11.67
2023-08-07T00:09:56.600Z,11.58
2023-08-07T00:12:24.989Z,11.54
2023-08-07T00:14:53.195Z,11.46
2023-08-07T00:17:21.509Z,11.53
2023-08-07T00:19:50.056Z,11.50
2023-08-07T00:22:19.697Z,11.42
2023-08-07T00:24:48.357Z,11.59
2023-08-07T00:27:16.571Z,11.47
2023-08-07T00:29:45.093Z,11.50
2023-08-07T00:32:13.140Z,11.55
2023-08-07T00:34:41.391Z,11.45
2023-08-07T00:37:09.926Z,11.50
2023-08-07T00:39:39.603Z,11.48
2023-08-07T00:42:08.690Z,11.27
2023-08-07T00:44:37.013Z,11.42
2023-08-07T00:47:05.763Z,11.38
2023-08-07T00:49:34.624Z,11.44
2023-08-07T00:52:02.893Z,11.37
2023-08-07T00:54:34.217Z,11.30
2023-08-07T00:57:12.929Z,11.38
2023-08-07T00:59:42.351Z,11.33
2023-08-07T01:02:11.600Z,11.32
2023-08-07T01:04:40.356Z,11.32
2023-08-07T01:07:08.939Z,11.20
2023-08-07T01:09:36.968Z,11.32
2023-08-07T01:12:16.968Z,11.25
2023-08-07T01:14:53.556Z,11.21
2023-08-07T01:17:24.580Z,11.28
2023-08-07T01:19:53.736Z,11.26
2023-08-07T01:22:23.736Z,11.27
2023-08-07T01:24:52.802Z,11.24
2023-08-07T01:27:33.680Z,11.20
2023-08-07T01:30:11.584Z,11.18
2023-08-07T01:32:49.853Z,11.16
2023-08-07T01:35:21.091Z,11.21
2023-08-07T01:37:51.925Z,11.20
2023-08-07T01:40:21.270Z,11.23
2023-08-07T01:42:49.964Z,11.22
2023-08-07T01:45:25.173Z,11.20
2023-08-07T01:47:53.947Z,11.22
2023-08-07T01:50:22.508Z,11.22
2023-08-07T01:52:52.731Z,11.20
2023-08-07T01:55:22.154Z,11.09
2023-08-07T01:57:50.402Z,11.17
2023-08-07T02:00:18.707Z,11.14
2023-08-07T02:02:48.251Z,11.13
2023-08-07T02:05:17.719Z,11.09
2023-08-07T02:07:46.298Z,11.03
2023-08-07T02:10:15.759Z,11.01
2023-08-07T02:12:43.798Z,11.17
2023-08-07T02:15:12.372Z,11.11
2023-08-07T02:17:42.624Z,11.02
2023-08-07T02:20:12.643Z,11.04
2023-08-07T02:22:40.747Z,10.94
2023-08-07T02:25:09.771Z,10.92
2023-08-07T02:27:40.932Z,11.00
2023-08-07T02:30:09.851Z,11.02
2023-08-07T02:32:38.030Z,11.08
2023-08-07T02:35:06.975Z,11.02
2023-08-07T02:37:34.989Z,11.12
2023-08-07T02:40:03.395Z,11.14
2023-08-07T02:42:31.332Z,10.93
2023-08-07T02:45:00.958Z,10.97
2023-08-07T02:47:29.170Z,11.02
2023-08-07T02:49:57.159Z,11.03
2023-08-07T02:52:25.289Z,10.98
2023-08-07T02:54:53.320Z,11.00
2023-08-07T02:57:21.827Z,10.99
2023-08-07T02:59:50.279Z,10.92
2023-08-07T03:02:19.800Z,11.02
2023-08-07T03:04:47.901Z,11.11
2023-08-07T03:07:16.349Z,11.09
2023-08-07T03:09:49.125Z,10.91
2023-08-07T03:12:17.508Z,11.01
2023-08-07T03:14:45.595Z,10.96
2023-08-07T03:17:14.168Z,10.96
2023-08-07T03:19:45.491Z,10.87
2023-08-07T03:22:13.672Z,11.02
2023-08-07T03:24:41.836Z,10.87
2023-08-07T03:27:10.274Z,10.98
2023-08-07T03:29:38.429Z,11.00
2023-08-07T03:32:06.710Z,10.98
2023-08-07T03:34:34.874Z,10.86
2023-08-07T03:37:04.612Z,11.01
2023-08-07T03:39:32.781Z,10.99
2023-08-07T03:42:00.796Z,10.95
2023-08-07T03:44:30.095Z,10.91
2023-08-07T03:47:00.420Z,10.98
2023-08-07T03:49:30.028Z,11.02
2023-08-07T03:52:01.184Z,10.99
2023-08-07T03:54:30.537Z,10.83
2023-08-07T03:56:58.570Z,11.02
2023-08-07T03:59:26.877Z,10.97
2023-08-07T04:01:55.504Z,10.98
2023-08-07T04:04:23.933Z,10.94
2023-08-07T04:06:52.007Z,10.87
2023-08-07T04:09:20.227Z,10.95
2023-08-07T04:11:49.691Z,10.78
2023-08-07T04:14:17.825Z,10.95
2023-08-07T04:16:47.521Z,10.82
2023-08-07T04:19:15.566Z,10.96
2023-08-07T04:21:44.191Z,10.96
2023-08-07T04:24:12.616Z,10.86
2023-08-07T04:26:41.097Z,10.86
2023-08-07T04:29:12.130Z,10.84
2023-08-07T04:31:40.130Z,10.89
2023-08-07T04:34:08.374Z,10.79
2023-08-07T04:36:36.444Z,10.89
2023-08-07T04:39:04.668Z,10.83
2023-08-07T04:41:32.703Z,10.89
2023-08-07T04:44:00.943Z,10.80
2023-08-07T04:46:31.337Z,10.72
2023-08-07T04:49:00.829Z,10.81
2023-08-07T04:51:31.563Z,10.83
2023-08-07T04:54:00.488Z,10.84
2023-08-07T04:56:28.714Z,10.86
2023-08-07T04:58:56.772Z,10.75
2023-08-07T05:01:24.958Z,10.83
2023-08-07T05:03:54.728Z,10.85
2023-08-07T05:06:23.324Z,10.83
2023-08-07T05:08:51.400Z,10.86
2023-08-07T05:11:21.509Z,10.88
2023-08-07T05:13:50.031Z,10.84
2023-08-07T05:16:20.140Z,10.90
2023-08-07T05:18:50.738Z,10.90
2023-08-07T05:21:20.962Z,10.85
2023-08-07T05:23:49.246Z,10.81
2023-08-07T05:26:20.457Z,10.76
2023-08-07T05:28:48.982Z,10.85
2023-08-07T05:31:17.198Z,10.79
2023-08-07T05:33:45.289Z,10.82
2023-08-07T05:36:13.371Z,10.89
2023-08-07T05:38:42.748Z,10.87
2023-08-07T05:41:11.287Z,10.70
2023-08-07T05:43:39.527Z,10.69
2023-08-07T05:46:07.593Z,10.81
2023-08-07T05:48:35.895Z,10.83
2023-08-07T05:51:04.196Z,10.76
2023-08-07T05:53:32.625Z,10.87
2023-08-07T05:56:02.063Z,10.76
2023-08-07T05:58:30.332Z,10.84
2023-08-07T06:00:58.309Z,10.76
2023-08-07T06:03:26.562Z,10.95
2023-08-07T06:05:54.576Z,10.95
2023-08-07T06:08:22.861Z,10.81
2023-08-07T06:10:50.936Z,10.90
2023-08-07T06:13:34.199Z,10.90
2023-08-07T06:16:04.057Z,10.88
2023-08-07T06:18:32.217Z,10.87
2023-08-07T06:21:00.532Z,10.84
2023-08-07T06:23:28.791Z,10.90
2023-08-07T06:25:59.863Z,10.82
2023-08-07T06:28:29.692Z,10.84
2023-08-07T06:31:04.721Z,10.88
2023-08-07T06:33:34.415Z,10.85
2023-08-07T06:36:03.019Z,10.85
2023-08-07T06:38:31.706Z,11.00
2023-08-07T06:41:00.165Z,10.87
2023-08-07T06:43:29.705Z,10.99
2023-08-07T06:45:59.153Z,10.94
2023-08-07T06:48:27.244Z,10.95
2023-08-07T06:50:55.520Z,10.97
2023-08-07T06:53:23.611Z,10.96
2023-08-07T06:55:52.908Z,11.13
2023-08-07T06:58:22.257Z,11.00
2023-08-07T07:00:52.216Z,11.10
2023-08-07T07:03:21.429Z,11.02
2023-08-07T07:05:51.618Z,11.02
2023-08-07T07:08:19.693Z,11.15
2023-08-07T07:10:47.846Z,11.14
2023-08-07T07:13:16.064Z,11.01
2023-08-07T07:15:44.248Z,10.94
2023-08-07T07:18:13.983Z,10.93
2023-08-07T07:20:41.973Z,11.08
2023-08-07T07:23:09.150Z,10.95
2023-08-07T07:25:37.461Z,11.13
2023-08-07T07:28:05.905Z,11.16
2023-08-07T07:30:34.281Z,11.16
2023-08-07T07:33:02.322Z,11.17
2023-08-07T07:35:31.890Z,11.08
2023-08-07T07:37:59.954Z,11.18
2023-08-07T07:40:28.224Z,11.20
2023-08-07T07:42:56.667Z,11.40
2023-08-07T07:45:24.850Z,11.30
2023-08-07T07:47:53.346Z,11.36
2023-08-07T07:50:21.830Z,11.55
2023-08-07T07:52:51.618Z,11.50
2023-08-07T07:55:19.700Z,11.48
2023-08-07T07:57:48.238Z,11.53
2023-08-07T08:00:17.285Z,11.42
2023-08-07T08:02:45.369Z,11.40
2023-08-07T08:05:13.811Z,11.51
2023-08-07T08:07:42.132Z,11.43
2023-08-07T08:10:13.487Z,11.47
2023-08-07T08:12:41.875Z,11.54
2023-08-07T08:15:11.723Z,11.44
2023-08-07T08:17:40.258Z,11.60
2023-08-07T08:20:09.756Z,11.40
2023-08-07T08:22:37.954Z,11.47
2023-08-07T08:25:07.823Z,11.50
2023-08-07T08:27:37.579Z,11.43
2023-08-07T08:30:06.727Z,11.43
2023-08-07T08:32:35.208Z,11.42
2023-08-07T08:35:03.378Z,11.31
2023-08-07T08:37:31.668Z,11.41
2023-08-07T08:40:00.839Z,11.50
2023-08-07T08:42:29.523Z,11.45
2023-08-07T08:45:00.555Z,11.45
2023-08-07T08:47:29.669Z,11.43
2023-08-07T08:50:03.875Z,11.46
2023-08-07T08:52:33.990Z,11.62
2023-08-07T08:55:03.079Z,11.77
2023-08-07T08:57:32.204Z,11.74
2023-08-07T09:00:02.915Z,11.74
2023-08-07T09:02:31.179Z,11.48
2023-08-07T09:04:59.479Z,11.70
2023-08-07T09:07:29.923Z,11.61
2023-08-07T09:10:00.049Z,11.61
2023-08-07T09:12:31.591Z,11.72
2023-08-07T09:15:04.157Z,11.70
2023-08-07T09:17:36.156Z,11.77
2023-08-07T09:20:07.798Z,11.71
2023-08-07T09:22:36.925Z,11.70
2023-08-07T09:25:05.197Z,11.82
2023-08-07T09:27:34.321Z,11.82
2023-08-07T09:30:04.396Z,11.75
2023-08-07T09:32:32.889Z,11.75
2023-08-07T09:35:01.387Z,11.93
2023-08-07T09:37:29.534Z,11.97
2023-08-07T09:39:58.375Z,11.96
2023-08-07T09:42:26.697Z,12.15
2023-08-07T09:44:55.033Z,12.16
2023-08-07T09:47:25.074Z,12.09
2023-08-07T09:49:57.205Z,11.99
2023-08-07T09:52:29.602Z,12.03
2023-08-07T09:54:59.417Z,11.87
2023-08-07T09:57:28.159Z,11.95
2023-08-07T09:59:56.901Z,11.83
2023-08-07T10:02:26.607Z,11.98
2023-08-07T10:04:56.013Z,12.11
2023-08-07T10:07:25.029Z,12.19
2023-08-07T10:09:53.298Z,12.26
2023-08-07T10:12:23.322Z,11.93
2023-08-07T10:14:53.113Z,12.11
2023-08-07T10:17:23.928Z,12.11
2023-08-07T10:19:54.344Z,12.29
2023-08-07T10:22:25.688Z,12.23
2023-08-07T10:24:56.070Z,12.13
2023-08-07T10:27:26.791Z,12.18
2023-08-07T10:29:56.443Z,12.20
2023-08-07T10:32:26.590Z,12.19
2023-08-07T10:34:57.047Z,12.19
2023-08-07T10:37:44.636Z,12.32
2023-08-07T10:40:14.657Z,12.42
2023-08-07T10:43:00.083Z,12.50
2023-08-07T10:45:30.029Z,12.57
2023-08-07T10:48:05.514Z,12.57
2023-08-07T10:50:36.526Z,12.60
2023-08-07T10:53:05.500Z,12.46
2023-08-07T10:55:45.060Z,12.51
2023-08-07T10:58:24.904Z,12.46
2023-08-07T11:00:54.198Z,12.37
2023-08-07T11:03:28.809Z,12.46
2023-08-07T11:06:00.602Z,12.50
2023-08-07T11:08:30.901Z,12.50
2023-08-07T11:11:06.461Z,12.58
2023-08-07T11:13:35.367Z,12.70
2023-08-07T11:16:06.800Z,12.74
2023-08-07T11:18:36.912Z,12.59
2023-08-07T11:21:06.959Z,12.46
2023-08-07T11:23:36.796Z,12.59
2023-08-07T11:26:05.267Z,12.69
2023-08-07T11:28:34.056Z,12.88
2023-08-07T11:31:02.995Z,12.80
2023-08-07T11:33:32.027Z,12.82
2023-08-07T11:36:00.320Z,12.84
2023-08-07T11:38:34.619Z,12.72
2023-08-07T11:41:04.675Z,12.68
2023-08-07T11:43:35.010Z,12.76
2023-08-07T11:46:05.940Z,12.79
2023-08-07T11:48:35.555Z,12.87
2023-08-07T11:51:04.525Z,12.92
2023-08-07T11:53:36.962Z,12.76
2023-08-07T11:56:07.025Z,12.82
2023-08-07T11:58:37.333Z,12.87
2023-08-07T12:01:11.698Z,12.91
2023-08-07T12:03:41.174Z,13.04
2023-08-07T12:06:10.427Z,13.18
2023-08-07T12:08:41.163Z,13.18
2023-08-07T12:11:11.386Z,13.12
2023-08-07T12:13:40.792Z,13.21
2023-08-07T12:16:09.644Z,13.31
2023-08-07T12:18:40.026Z,13.34
2023-08-07T12:21:10.188Z,13.45
2023-08-07T12:23:41.760Z,13.61
2023-08-07T12:26:11.103Z,13.54
2023-08-07T12:28:39.354Z,13.39
2023-08-07T12:31:08.367Z,13.50
2023-08-07T12:33:36.724Z,13.50
2023-08-07T12:36:05.393Z,13.60
2023-08-07T12:38:33.541Z,13.55
2023-08-07T12:41:04.448Z,13.27
2023-08-07T12:43:32.681Z,13.31
2023-08-07T12:48:33.929Z,13.03
2023-08-07T12:51:02.387Z,13.03
2023-08-07T12:53:32.983Z,12.98
2023-08-07T12:56:04.169Z,12.92
2023-08-07T12:58:32.164Z,12.90
2023-08-07T13:01:00.645Z,12.82
2023-08-07T13:03:29.073Z,12.91
2023-08-07T13:05:57.088Z,12.85
2023-08-07T13:08:25.339Z,12.98
2023-08-07T13:10:53.627Z,12.81
2023-08-07T13:13:23.254Z,12.87
2023-08-07T13:15:52.805Z,12.83
2023-08-07T13:18:22.710Z,12.70
2023-08-07T13:20:51.615Z,12.52
2023-08-07T13:23:19.981Z,12.40
2023-08-07T13:25:48.216Z,12.31
2023-08-07T13:28:16.476Z,12.40
2023-08-07T13:30:46.170Z,12.44
2023-08-07T13:33:16.469Z,12.53
2023-08-07T13:35:46.122Z,12.51
2023-08-07T13:38:16.197Z,12.55
2023-08-07T13:40:45.708Z,12.60
2023-08-07T13:43:15.122Z,12.62
2023-08-07T13:45:43.374Z,12.65
2023-08-07T13:48:13.041Z,12.62
2023-08-07T13:50:42.394Z,12.66
2023-08-07T13:53:15.045Z,12.59
2023-08-07T13:55:45.066Z,12.55
2023-08-07T13:58:16.763Z,12.67
2023-08-07T14:00:45.084Z,12.82
2023-08-07T14:03:15.555Z,12.75
2023-08-07T14:05:44.141Z,12.79
2023-08-07T14:08:12.440Z,12.77
2023-08-07T14:10:42.503Z,12.78
2023-08-07T14:13:12.833Z,12.91
2023-08-07T14:15:41.758Z,12.85
2023-08-07T14:18:09.975Z,12.84
2023-08-07T14:20:52.156Z,12.65
2023-08-07T14:23:30.659Z,12.82
2023-08-07T14:26:00.559Z,12.69
2023-08-07T14:28:29.962Z,12.96
2023-08-07T14:31:01.604Z,13.01
2023-08-07T14:33:30.880Z,12.87
2023-08-07T14:36:01.593Z,13.04
2023-08-07T14:38:30.123Z,13.04
2023-08-07T14:41:00.627Z,12.99
2023-08-07T14:43:32.587Z,13.03
2023-08-07T14:46:00.934Z,13.06
2023-08-07T14:48:31.965Z,13.08
2023-08-07T14:51:02.653Z,13.03
2023-08-07T14:53:30.863Z,13.01
2023-08-07T14:55:59.145Z,13.03
2023-08-07T14:58:27.299Z,13.08
2023-08-07T15:00:56.637Z,13.12
2023-08-07T15:03:24.864Z,13.25
2023-08-07T15:05:53.547Z,13.34
2023-08-07T15:08:23.674Z,13.42
2023-08-07T15:10:54.592Z,13.68
2023-08-07T15:13:23.315Z,13.81
2023-08-07T15:15:52.914Z,13.78
2023-08-07T15:18:21.164Z,13.68
2023-08-07T15:20:50.724Z,13.70
2023-08-07T15:23:19.033Z,13.65
2023-08-07T15:25:49.303Z,13.49
2023-08-07T15:28:17.399Z,13.60
2023-08-07T15:30:50.842Z,13.70
2023-08-07T15:33:20.839Z,13.73
2023-08-07T15:35:52.969Z,13.68
2023-08-07T15:38:21.556Z,13.68
2023-08-07T15:40:51.252Z,13.71
2023-08-07T15:43:19.794Z,13.66
2023-08-07T15:45:49.309Z,13.72
2023-08-07T15:48:19.144Z,13.69
2023-08-07T15:50:47.508Z,13.76
2023-08-07T15:53:15.886Z,13.87
2023-08-07T15:55:43.947Z,13.92
2023-08-07T15:58:13.646Z,13.98
2023-08-07T16:00:41.876Z,14.19
2023-08-07T16:03:11.439Z,14.34
2023-08-07T16:05:40.741Z,14.30
2023-08-07T16:08:09.840Z,14.51
2023-08-07T16:10:39.942Z,14.57
2023-08-07T16:13:08.464Z,14.65
2023-08-07T16:15:39.257Z,14.75
2023-08-07T16:18:07.859Z,14.52
2023-08-07T16:20:36.533Z,14.63
2023-08-07T16:23:04.938Z,14.70
2023-08-07T16:25:33.793Z,14.56
2023-08-07T16:28:03.368Z,14.62
2023-08-07T16:30:31.610Z,14.84
2023-08-07T16:33:01.387Z,14.88
2023-08-07T16:35:29.975Z,15.28
2023-08-07T16:37:58.140Z,15.25
2023-08-07T16:40:26.696Z,15.97
2023-08-07T16:42:55.279Z,16.74
2023-08-07T16:45:24.828Z,17.33
2023-08-07T16:47:53.096Z,17.19
2023-08-07T16:50:22.959Z,16.66
2023-08-07T16:52:51.261Z,16.56
2023-08-07T16:55:19.602Z,16.19
2023-08-07T16:57:48.131Z,15.90
2023-08-07T17:00:16.979Z,15.73
2023-08-07T17:02:47.198Z,15.64
2023-08-07T17:05:15.503Z,15.56
2023-08-07T17:07:44.872Z,15.45
2023-08-07T17:10:14.567Z,15.37
2023-08-07T17:12:43.933Z,15.27
2023-08-07T17:15:12.566Z,15.14
2023-08-07T17:17:40.984Z,15.21
2023-08-07T17:20:09.823Z,15.18
2023-08-07T17:22:38.935Z,15.17
2023-08-07T17:25:09.665Z,15.11
2023-08-07T17:27:38.013Z,15.02
2023-08-07T17:30:07.468Z,14.93
2023-08-07T17:32:38.149Z,14.92
2023-08-07T17:35:07.611Z,14.90
2023-08-07T17:37:35.844Z,14.96
2023-08-07T17:40:04.548Z,14.83
2023-08-07T17:42:34.146Z,14.77
2023-08-07T17:45:03.417Z,14.75
2023-08-07T17:47:31.993Z,14.78
2023-08-07T17:50:00.599Z,14.88
2023-08-07T17:52:31.116Z,14.87
2023-08-07T17:54:59.286Z,14.82
2023-08-07T17:57:27.488Z,14.76
2023-08-07T17:59:57.123Z,14.73
2023-08-07T18:02:26.801Z,14.74
2023-08-07T18:04:55.303Z,14.66
2023-08-07T18:07:23.960Z,14.64
2023-08-07T18:09:52.126Z,14.49
2023-08-07T18:12:21.170Z,14.42
2023-08-07T18:14:49.296Z,14.47
2023-08-07T18:17:18.789Z,14.36
2023-08-07T18:19:47.445Z,14.31
2023-08-07T18:22:15.788Z,14.30
2023-08-07T18:24:44.967Z,14.16
2023-08-07T18:27:14.265Z,14.10
2023-08-07T18:29:43.417Z,14.08
2023-08-07T18:32:11.786Z,14.04
2023-08-07T18:34:41.510Z,13.84
2023-08-07T18:37:09.573Z,13.89
2023-08-07T18:39:37.702Z,13.91
2023-08-07T18:42:06.326Z,13.82
2023-08-07T18:44:34.916Z,13.78
2023-08-07T18:47:03.652Z,13.68
2023-08-07T18:49:32.567Z,13.56
2023-08-07T18:52:05.232Z,13.44
2023-08-07T18:54:33.545Z,13.43
2023-08-07T18:57:03.415Z,13.37
2023-08-07T18:59:34.103Z,13.26
2023-08-07T19:02:02.207Z,13.21
2023-08-07T19:04:30.996Z,13.19
2023-08-07T19:06:59.896Z,13.18
2023-08-07T19:09:30.477Z,13.15
2023-08-07T19:11:58.908Z,13.21
2023-08-07T19:14:27.519Z,13.28
2023-08-07T19:16:55.730Z,13.25
2023-08-07T19:19:24.253Z,13.37
2023-08-07T19:21:52.389Z,13.41
2023-08-07T19:24:21.073Z,13.44
2023-08-07T19:26:50.633Z,13.39
2023-08-07T19:29:19.300Z,13.44
2023-08-07T19:31:47.628Z,13.39
2023-08-07T19:34:17.574Z,13.34
2023-08-07T19:36:46.058Z,13.31
2023-08-07T19:39:14.718Z,13.21
2023-08-07T19:41:42.896Z,13.15
2023-08-07T19:44:12.392Z,13.04
2023-08-07T19:46:40.609Z,12.98
2023-08-07T19:49:08.778Z,12.82
2023-08-07T19:51:37.397Z,12.82
2023-08-07T19:54:05.916Z,12.80
2023-08-07T19:56:36.836Z,12.74
2023-08-07T19:59:06.220Z,12.68
2023-08-07T20:01:36.145Z,12.70
2023-08-07T20:04:04.737Z,12.60
2023-08-07T20:06:33.526Z,12.56
2023-08-07T20:09:02.538Z,12.57
2023-08-07T20:11:38.242Z,12.45
2023-08-07T20:14:06.622Z,12.62
2023-08-07T20:16:36.688Z,12.67
2023-08-07T20:19:04.888Z,12.65
2023-08-07T20:21:33.657Z,12.64
2023-08-07T20:24:01.742Z,12.69
2023-08-07T20:26:34.032Z,12.73
2023-08-07T20:29:02.402Z,12.79
2023-08-07T20:31:30.623Z,12.81
2023-08-07T20:34:00.253Z,12.79
2023-08-07T20:36:29.799Z,12.90
2023-08-07T20:38:58.670Z,13.01
2023-08-07T20:41:27.279Z,13.14
2023-08-07T20:43:57.280Z,13.17
2023-08-07T20:46:25.563Z,13.08
2023-08-07T20:48:53.929Z,13.18
2023-08-07T20:51:23.875Z,13.24
2023-08-07T20:53:52.353Z,13.27
2023-08-07T20:56:20.952Z,13.41
2023-08-07T20:58:49.046Z,13.41
2023-08-07T21:01:17.227Z,13.28
2023-08-07T21:03:45.463Z,13.33
2023-08-07T21:06:13.648Z,13.35
2023-08-07T21:08:43.069Z,13.24
2023-08-07T21:11:11.129Z,13.23
2023-08-07T21:13:39.927Z,13.08
2023-08-07T21:16:08.834Z,12.83
2023-08-07T21:18:36.903Z,12.63
2023-08-07T21:21:05.100Z,12.66
2023-08-07T21:23:35.690Z,12.56
2023-08-07T21:26:05.560Z,12.45
2023-08-07T21:28:33.789Z,12.29
2023-08-07T21:31:02.118Z,12.22
2023-08-07T21:33:30.419Z,12.16
2023-08-07T21:35:59.771Z,12.16
2023-08-07T21:38:28.385Z,12.13
2023-08-07T21:40:56.536Z,12.08
2023-08-07T21:43:26.659Z,12.01
2023-08-07T21:45:54.655Z,11.96
2023-08-07T21:48:22.712Z,11.91
2023-08-07T21:50:51.280Z,11.87
2023-08-07T21:53:19.332Z,11.85
2023-08-07T21:55:47.806Z,11.71
2023-08-07T21:58:16.371Z,11.71
2023-08-07T22:00:48.510Z,11.56
2023-08-07T22:03:16.726Z,11.54
2023-08-07T22:05:44.896Z,11.47
2023-08-07T22:08:12.954Z,11.42
2023-08-07T22:10:41.370Z,11.36
2023-08-07T22:13:09.441Z,11.29
2023-08-07T22:15:37.598Z,11.21
2023-08-07T22:18:07.462Z,11.15
2023-08-07T22:20:35.619Z,11.12
2023-08-07T22:23:03.743Z,10.98
2023-08-07T22:25:32.150Z,11.11
2023-08-07T22:28:00.379Z,11.01
2023-08-07T22:30:28.635Z,11.01
2023-08-07T22:32:56.961Z,11.02
2023-08-07T22:35:26.992Z,10.88
2023-08-07T22:37:55.144Z,10.90
2023-08-07T22:40:23.491Z,10.87
2023-08-07T22:42:51.592Z,10.78
2023-08-07T22:45:19.862Z,10.89
2023-08-07T22:47:48.507Z,10.83
2023-08-07T22:50:16.862Z,10.85
2023-08-07T22:52:46.433Z,10.83
2023-08-07T22:55:14.676Z,10.84
2023-08-07T22:57:42.789Z,10.82
2023-08-07T23:00:13.498Z,10.82
2023-08-07T23:02:41.944Z,10.80
2023-08-07T23:05:10.223Z,10.83
2023-08-07T23:07:39.689Z,10.86
2023-08-07T23:10:10.244Z,10.86
2023-08-07T23:12:38.258Z,10.90
2023-08-07T23:15:07.209Z,10.91
2023-08-07T23:17:35.782Z,10.86
2023-08-07T23:20:05.315Z,10.86
2023-08-07T23:22:33.392Z,10.88
2023-08-07T23:25:03.902Z,10.88
2023-08-07T23:27:33.537Z,10.82
2023-08-07T23:30:01.793Z,10.89
2023-08-07T23:32:29.896Z,10.95
2023-08-07T23:34:58.084Z,10.99
2023-08-07T23:37:26.308Z,11.04
2023-08-07T23:39:54.829Z,11.06
2023-08-07T23:42:23.199Z,11.13
2023-08-07T23:44:52.809Z,11.08
2023-08-07T23:47:21.043Z,11.05
2023-08-07T23:49:49.210Z,11.11
2023-08-07T23:52:17.466Z,11.13
2023-08-07T23:54:45.776Z,11.13
2023-08-07T23:57:14.013Z,11.11
2023-08-07T23:59:42.120Z,11.00
